createdAt,value
2023-08-04T00:02:26.781Z,97506.31
2023-08-04T00:07:28.858Z,97504.00
2023-08-04T00:12:32.069Z,97508.47
2023-08-04T00:17:36.792Z,97501.13
2023-08-04T00:22:39.725Z,97486.13
2023-08-04T00:27:41.773Z,97495.84
2023-08-04T00:32:43.855Z,97485.31
2023-08-04T00:37:46.034Z,97496.09
2023-08-04T00:42:47.991Z,97500.81
2023-08-04T00:47:50.197Z,97508.94
2023-08-04T00:52:52.790Z,97499.44
2023-08-04T00:57:56.661Z,97506.56
2023-08-04T01:02:58.885Z,97499.69
2023-08-04T01:08:16.047Z,97470.66
2023-08-04T01:13:23.499Z,97503.53
2023-08-04T01:18:25.555Z,97515.31
2023-08-04T01:23:28.998Z,97526.34
2023-08-04T01:28:33.956Z,97538.13
2023-08-04T01:33:37.687Z,97530.47
2023-08-04T01:38:39.614Z,97522.03
2023-08-04T01:43:41.641Z,97529.91
2023-08-04T01:48:43.681Z,97534.84
2023-08-04T01:53:45.890Z,97547.47
2023-08-04T01:58:48.035Z,97537.66
2023-08-04T02:03:50.219Z,97550.25
2023-08-04T02:08:52.291Z,97558.59
2023-08-04T02:13:54.206Z,97565.09
2023-08-04T02:19:08.325Z,97549.56
2023-08-04T02:24:13.493Z,97541.91
2023-08-04T02:29:15.711Z,97531.63
2023-08-04T02:34:19.215Z,97532.09
2023-08-04T02:39:21.229Z,97536.00
2023-08-04T02:44:23.228Z,97535.66
2023-08-04T02:49:25.266Z,97556.16
2023-08-04T02:54:27.219Z,97560.03
2023-08-04T02:59:29.273Z,97575.03
2023-08-04T03:04:31.491Z,97591.50
2023-08-04T03:09:33.502Z,97586.16
2023-08-04T03:14:35.469Z,97590.06
2023-08-04T03:19:37.415Z,97585.25
2023-08-04T03:24:39.391Z,97587.56
2023-08-04T03:29:41.379Z,97582.75
2023-08-04T03:34:43.378Z,97596.16
2023-08-04T03:39:45.357Z,97606.88
2023-08-04T03:44:47.347Z,97605.28
2023-08-04T03:49:49.598Z,97613.19
2023-08-04T03:54:51.813Z,97628.97
2023-08-04T03:59:54.867Z,97625.31
2023-08-04T04:04:56.916Z,97634.56
2023-08-04T04:09:58.971Z,97642.44
2023-08-04T04:15:00.926Z,97637.41
2023-08-04T04:20:04.453Z,97621.63
2023-08-04T04:25:06.645Z,97621.06
2023-08-04T04:30:09.040Z,97632.16
2023-08-04T04:35:11.098Z,97626.44
2023-08-04T04:40:13.151Z,97622.78
2023-08-04T04:45:15.213Z,97634.44
2023-08-04T04:50:17.184Z,97651.34
2023-08-04T04:55:19.282Z,97656.13
2023-08-04T05:00:21.539Z,97663.31
2023-08-04T05:05:23.603Z,97665.50
2023-08-04T05:10:26.665Z,97664.22
2023-08-04T05:15:28.717Z,97673.72
2023-08-04T05:20:30.956Z,97685.63
2023-08-04T05:25:33.161Z,97700.22
2023-08-04T05:30:35.330Z,97702.41
2023-08-04T05:35:38.978Z,97705.25
2023-08-04T05:40:46.001Z,97702.63
2023-08-04T05:45:48.980Z,97698.16
2023-08-04T05:50:56.628Z,97703.19
2023-08-04T05:55:58.815Z,97710.63
2023-08-04T06:01:01.186Z,97718.88
2023-08-04T06:06:03.251Z,97731.34
2023-08-04T06:11:05.194Z,97748.50
2023-08-04T06:16:07.894Z,97741.97
2023-08-04T06:21:10.020Z,97748.03
2023-08-04T06:26:12.273Z,97754.91
2023-08-04T06:31:14.332Z,97761.31
2023-08-04T06:36:16.319Z,97770.78
2023-08-04T06:41:21.526Z,97781.16
2023-08-04T06:46:23.499Z,97774.41
2023-08-04T06:51:25.548Z,97778.06
2023-08-04T06:56:27.601Z,97777.97
2023-08-04T07:01:29.802Z,97793.06
2023-08-04T07:06:31.833Z,97786.16
2023-08-04T07:11:33.871Z,97794.25
2023-08-04T07:16:36.143Z,97801.00
2023-08-04T07:21:39.208Z,97799.16
2023-08-04T07:26:41.309Z,97806.81
2023-08-04T07:31:43.798Z,97811.28
2023-08-04T07:36:45.742Z,97819.75
2023-08-04T07:41:48.058Z,97833.16
2023-08-04T07:46:50.491Z,97833.78
2023-08-04T07:51:52.529Z,97836.22
2023-08-04T07:56:54.572Z,97838.03
2023-08-04T08:01:56.605Z,97839.50
2023-08-04T08:06:58.691Z,97840.16
2023-08-04T08:12:00.842Z,97838.97
2023-08-04T08:17:03.588Z,97846.56
2023-08-04T08:22:05.899Z,97855.03
2023-08-04T08:27:08.431Z,97847.50
2023-08-04T08:32:10.873Z,97853.59
2023-08-04T08:37:13.052Z,97843.03
2023-08-04T08:42:15.324Z,97853.66
2023-08-04T08:47:19.551Z,97853.63
2023-08-04T08:52:28.604Z,97844.00
2023-08-04T08:57:32.000Z,97852.59
2023-08-04T09:02:34.177Z,97843.78
2023-08-04T09:07:36.294Z,97843.63
2023-08-04T09:12:39.178Z,97845.16
2023-08-04T09:17:43.123Z,97857.06
2023-08-04T09:22:45.541Z,97865.78
2023-08-04T09:27:51.747Z,97873.22
2023-08-04T09:32:54.054Z,97875.69
2023-08-04T09:37:57.114Z,97865.09
2023-08-04T09:43:00.517Z,97869.09
2023-08-04T09:48:11.930Z,97869.00
2023-08-04T09:53:17.343Z,97883.44
2023-08-04T09:58:19.504Z,97878.38
2023-08-04T10:03:22.963Z,97879.97
2023-08-04T10:08:26.380Z,97885.34
2023-08-04T10:13:31.112Z,97877.84
2023-08-04T10:18:49.739Z,97873.94
2023-08-04T10:23:54.204Z,97887.00
2023-08-04T10:29:05.655Z,97896.75
2023-08-04T10:34:29.369Z,97905.03
2023-08-04T10:39:51.780Z,97909.81
2023-08-04T10:45:06.574Z,97890.66
2023-08-04T10:50:09.522Z,97905.41
2023-08-04T10:55:13.818Z,97882.47
2023-08-04T11:00:16.958Z,97884.16
2023-08-04T11:05:25.450Z,97870.75
2023-08-04T11:10:27.642Z,97883.47
2023-08-04T11:15:29.705Z,97875.53
2023-08-04T11:20:33.529Z,97878.72
2023-08-04T11:25:41.898Z,97870.50
2023-08-04T11:30:43.982Z,97877.06
2023-08-04T11:35:47.112Z,97881.06
2023-08-04T11:41:15.446Z,97879.47
2023-08-04T11:46:17.504Z,97890.03
2023-08-04T11:51:19.999Z,97887.34
2023-08-04T11:56:34.593Z,97882.06
2023-08-04T12:01:39.090Z,97883.66
2023-08-04T12:06:45.040Z,97886.53
2023-08-04T12:11:49.916Z,97910.38
2023-08-04T12:17:03.158Z,97937.84
2023-08-04T12:22:06.166Z,97940.72
2023-08-04T12:27:08.194Z,97926.41
2023-08-04T12:32:10.340Z,97922.06
2023-08-04T12:37:12.590Z,97915.66
2023-08-04T12:42:14.939Z,97926.28
2023-08-04T12:47:18.504Z,97927.81
2023-08-04T12:52:21.244Z,97930.78
2023-08-04T12:57:23.353Z,97939.13
2023-08-04T13:02:25.617Z,97955.91
2023-08-04T13:07:27.884Z,97978.19
2023-08-04T13:12:30.158Z,97969.78
2023-08-04T13:17:32.482Z,97960.50
2023-08-04T13:22:34.987Z,97952.94
2023-08-04T13:27:37.267Z,97957.63
2023-08-04T13:32:39.687Z,97937.66
2023-08-04T13:37:41.888Z,97951.63
2023-08-04T13:42:44.410Z,97958.19
2023-08-04T13:47:48.072Z,97966.59
2023-08-04T13:52:50.270Z,97978.34
2023-08-04T13:57:52.812Z,97998.91
2023-08-04T14:02:54.929Z,97987.09
2023-08-04T14:07:57.079Z,97976.03
2023-08-04T14:12:59.439Z,97974.56
2023-08-04T14:18:01.581Z,97972.16
2023-08-04T14:23:03.865Z,97988.53
2023-08-04T14:28:06.012Z,97986.53
2023-08-04T14:33:08.271Z,97973.69
2023-08-04T14:38:10.646Z,97980.16
2023-08-04T14:43:13.142Z,97976.91
2023-08-04T14:48:15.528Z,97973.91
2023-08-04T14:53:17.693Z,97966.66
2023-08-04T14:58:19.925Z,97976.44
2023-08-04T15:03:22.685Z,97957.53
2023-08-04T15:08:25.192Z,97952.28
2023-08-04T15:13:27.543Z,97953.91
2023-08-04T15:18:30.750Z,97945.94
2023-08-04T15:23:33.076Z,97935.56
2023-08-04T15:28:35.124Z,97938.94
2023-08-04T15:33:38.844Z,97937.03
2023-08-04T15:38:41.171Z,97937.03
2023-08-04T15:43:44.320Z,97931.44
2023-08-04T15:48:46.606Z,97938.03
2023-08-04T15:53:48.938Z,97927.38
2023-08-04T15:58:51.000Z,97929.22
2023-08-04T16:03:55.358Z,97930.03
2023-08-04T16:08:58.444Z,97926.28
2023-08-04T16:14:00.513Z,97928.94
2023-08-04T16:19:04.436Z,97927.94
2023-08-04T16:24:06.751Z,97931.19
2023-08-04T16:29:08.926Z,97936.19
2023-08-04T16:34:10.971Z,97934.31
2023-08-04T16:39:13.022Z,97935.31
2023-08-04T16:44:15.181Z,97937.59
2023-08-04T16:49:17.522Z,97940.69
2023-08-04T16:54:23.047Z,97940.38
2023-08-04T16:59:25.204Z,97940.63
2023-08-04T17:04:29.506Z,97945.03
2023-08-04T17:09:32.283Z,97937.06
2023-08-04T17:14:34.419Z,97942.03
2023-08-04T17:19:36.489Z,97934.59
2023-08-04T17:24:39.726Z,97939.81
2023-08-04T17:29:42.040Z,97941.59
2023-08-04T17:34:46.980Z,97966.34
2023-08-04T17:39:49.024Z,97968.31
2023-08-04T17:44:51.248Z,97966.97
2023-08-04T17:49:53.648Z,97963.75
2023-08-04T17:54:56.068Z,97970.88
2023-08-04T17:59:58.407Z,97984.34
2023-08-04T18:05:00.575Z,97998.28
2023-08-04T18:10:03.465Z,98007.72
2023-08-04T18:15:06.419Z,98018.19
2023-08-04T18:20:09.994Z,98031.56
2023-08-04T18:25:12.399Z,98042.28
2023-08-04T18:30:15.342Z,98049.06
2023-08-04T18:35:17.483Z,98054.81
2023-08-04T18:40:19.653Z,98059.47
2023-08-04T18:45:21.974Z,98060.16
2023-08-04T18:50:24.797Z,98062.25
2023-08-04T18:55:26.937Z,98051.34
2023-08-04T19:00:29.168Z,98055.97
2023-08-04T19:05:31.254Z,98055.31
2023-08-04T19:10:33.227Z,98052.56
2023-08-04T19:15:35.404Z,98049.81
2023-08-04T19:20:37.604Z,98053.72
2023-08-04T19:25:39.601Z,98045.50
2023-08-04T19:30:41.546Z,98037.00
2023-08-04T19:35:43.615Z,98040.13
2023-08-04T19:40:58.405Z,98056.97
2023-08-04T19:46:02.441Z,98055.28
2023-08-04T19:51:16.417Z,98058.94
2023-08-04T19:56:18.774Z,98060.44
2023-08-04T20:01:20.854Z,98072.50
2023-08-04T20:06:22.893Z,98071.94
2023-08-04T20:11:24.808Z,98100.13
2023-08-04T20:16:26.979Z,98095.91
2023-08-04T20:21:29.026Z,98097.72
2023-08-04T20:26:31.021Z,98100.84
2023-08-04T20:31:33.085Z,98112.69
2023-08-04T20:36:35.193Z,98107.06
2023-08-04T20:41:37.130Z,98119.44
2023-08-04T20:46:39.107Z,98112.81
2023-08-04T20:51:41.079Z,98105.94
2023-08-04T20:56:43.098Z,98093.78
2023-08-04T21:01:45.123Z,98110.06
2023-08-04T21:06:47.358Z,98104.44
2023-08-04T21:11:49.559Z,98097.78
2023-08-04T21:16:51.716Z,98106.97
2023-08-04T21:21:54.023Z,98097.69
2023-08-04T21:26:56.053Z,98089.44
2023-08-04T21:31:58.160Z,98092.06
2023-08-04T21:37:00.093Z,98087.25
2023-08-04T21:42:02.018Z,98087.94
2023-08-04T21:47:04.084Z,98099.53
2023-08-04T21:52:06.746Z,98109.50
2023-08-04T21:57:09.328Z,98106.28
2023-08-04T22:02:11.257Z,98103.66
2023-08-04T22:07:14.054Z,98112.13
2023-08-04T22:12:15.983Z,98116.81
2023-08-04T22:17:17.926Z,98111.19
2023-08-04T22:22:22.192Z,98105.22
2023-08-04T22:27:24.227Z,98111.75
2023-08-04T22:32:28.278Z,98109.00
2023-08-04T22:37:30.268Z,98124.22
2023-08-04T22:42:32.164Z,98121.00
2023-08-04T22:47:34.204Z,98109.66
2023-08-04T22:52:36.178Z,98104.41
2023-08-04T22:57:38.344Z,98108.28
2023-08-04T23:02:43.914Z,98112.19
2023-08-04T23:07:46.506Z,98109.78
2023-08-04T23:12:50.490Z,98113.88
2023-08-04T23:17:52.403Z,98118.00
2023-08-04T23:22:54.816Z,98113.78
2023-08-04T23:27:56.761Z,98111.59
2023-08-04T23:32:58.715Z,98114.81
2023-08-04T23:38:00.690Z,98107.13
2023-08-04T23:43:02.646Z,98106.31
2023-08-04T23:48:04.895Z,98102.66
2023-08-04T23:53:06.870Z,98111.59
2023-08-04T23:58:08.766Z,98117.09
